Time;durP1;ratioP1;P1;durP2;ratioP2;P2;SDS_P1;SDS_P2;PMS_P1;PMS_P2;Temp;Humidity;BMP_temperature;BMP_pressure;BME280_temperature;BME280_humidity;BME280_pressure;Samples;Min_cycle;Max_cycle;Signal;HPM_P1;HPM_P2
2022/06/24 00:00:15;;;;;;;7.60;4.55;;;;;;;14.34;100.00;97682.66;1581488;91;21119;-81
2022/06/24 00:02:47;;;;;;;7.50;4.70;;;;;;;14.31;100.00;97675.56;1581728;91;21059;-81
2022/06/24 00:05:14;;;;;;;7.87;4.87;;;;;;;14.29;100.00;97674.45;1579804;91;21100;-81
2022/06/24 00:07:47;;;;;;;8.25;5.03;;;;;;;14.26;100.00;97674.13;1581728;91;21115;-81
2022/06/24 00:10:17;;;;;;;8.03;5.35;;;;;;;14.24;100.00;97660.79;1581723;91;21124;-80
2022/06/24 00:12:45;;;;;;;9.95;5.78;;;;;;;14.22;100.00;97656.96;1569166;91;21252;-81
2022/06/24 00:15:11;;;;;;;11.88;6.45;;;;;;;14.21;100.00;97660.74;1558694;91;21565;-81
2022/06/24 00:17:38;;;;;;;11.63;6.35;;;;;;;14.21;100.00;97660.74;1528361;94;21058;-81
2022/06/24 00:20:08;;;;;;;12.13;6.92;;;;;;;14.17;100.00;97656.89;1540956;93;21076;-80
2022/06/24 00:22:44;;;;;;;14.87;8.05;;;;;;;14.17;100.00;97656.89;1504510;95;21535;-79
2022/06/24 00:25:13;;;;;;;14.93;8.55;;;;;;;14.16;100.00;97648.98;1542928;93;21078;-79
2022/06/24 00:27:42;;;;;;;15.60;8.38;;;;;;;14.17;100.00;97632.44;1542759;93;21652;-79
2022/06/24 00:30:12;;;;;;;18.65;10.82;;;;;;;14.17;100.00;97619.39;1542815;93;21069;-80
2022/06/24 00:32:40;;;;;;;19.55;11.70;;;;;;;14.18;100.00;97598.77;1546867;93;21163;-81
2022/06/24 00:35:10;;;;;;;20.40;12.30;;;;;;;14.18;100.00;97589.25;1547089;93;21084;-78
2022/06/24 00:37:39;;;;;;;20.82;12.80;;;;;;;14.20;100.00;97583.53;1540146;92;21541;-80
2022/06/24 00:40:16;;;;;;;23.15;13.75;;;;;;;14.23;100.00;97571.61;1532545;94;21448;-79
2022/06/24 00:42:45;;;;;;;22.22;13.60;;;;;;;14.26;100.00;97566.22;1532305;94;21094;-79
2022/06/24 00:45:36;;;;;;;25.52;13.88;;;;;;;14.30;100.00;97543.43;1532583;94;21026;-79
2022/06/24 00:48:09;;;;;;;21.45;13.00;;;;;;;14.34;100.00;97527.72;1566365;92;21069;-79
2022/06/24 00:50:37;;;;;;;22.05;13.28;;;;;;;14.40;100.00;97507.65;1535066;92;21608;-79
2022/06/24 00:53:04;;;;;;;20.68;12.35;;;;;;;14.44;100.00;97493.00;1532434;94;21582;-79
2022/06/24 00:55:34;;;;;;;18.15;12.07;;;;;;;14.47;100.00;97472.10;1560216;92;21088;-78
2022/06/24 00:58:01;;;;;;;20.32;11.65;;;;;;;14.51;100.00;97455.54;1551925;91;21050;-80
2022/06/24 01:00:30;;;;;;;17.55;11.40;;;;;;;14.55;100.00;97451.21;1557178;92;21118;-80
2022/06/24 01:02:59;;;;;;;17.92;11.90;;;;;;;14.57;100.00;97434.13;1532250;94;21130;-81
2022/06/24 01:05:26;;;;;;;19.00;11.30;;;;;;;14.62;100.00;97415.67;1557178;92;21101;-82
2022/06/24 01:07:52;;;;;;;17.70;10.53;;;;;;;14.68;100.00;97400.20;1532412;94;21100;-80
2022/06/24 01:10:20;;;;;;;15.48;10.43;;;;;;;14.72;100.00;97382.30;1554878;92;21099;-80
2022/06/24 01:12:47;;;;;;;18.67;11.25;;;;;;;14.78;100.00;97337.72;1573374;91;21062;-81
2022/06/24 01:15:15;;;;;;;17.57;10.78;;;;;;;14.78;100.00;97337.72;1574497;91;21037;-82
2022/06/24 01:17:42;;;;;;;16.05;10.93;;;;;;;14.84;100.00;97330.39;1598593;90;21550;-80
2022/06/24 01:20:11;;;;;;;16.48;10.10;;;;;;;14.89;100.00;97299.14;1598841;90;21028;-81
2022/06/24 01:22:39;;;;;;;15.32;10.05;;;;;;;14.93;100.00;97292.91;1570818;90;21128;-81
2022/06/24 01:25:07;;;;;;;15.48;10.28;;;;;;;14.93;100.00;97292.91;1561875;88;21037;-81
2022/06/24 01:27:34;;;;;;;17.55;10.43;;;;;;;14.97;100.00;97291.83;1663925;86;21061;-81
2022/06/24 01:30:01;;;;;;;14.63;10.20;;;;;;;14.95;100.00;97276.32;1667339;86;21037;-80
2022/06/24 01:32:28;;;;;;;14.13;9.38;;;;;;;14.99;100.00;97280.95;1674408;86;21112;-81
2022/06/24 01:34:56;;;;;;;13.90;9.68;;;;;;;15.00;100.00;97270.90;1674688;86;20986;-80
2022/06/24 01:37:25;;;;;;;14.50;9.75;;;;;;;15.01;100.00;97264.36;1674535;86;21037;-80
2022/06/24 01:39:54;;;;;;;19.52;11.55;;;;;;;15.04;100.00;97269.27;1674441;86;21500;-81
2022/06/24 01:42:20;;;;;;;18.70;10.53;;;;;;;15.11;100.00;97243.98;1674613;86;21029;-82
2022/06/24 01:44:47;;;;;;;24.00;14.60;;;;;;;15.11;100.00;97243.98;1674287;86;21523;-82
2022/06/24 01:47:14;;;;;;;45.28;27.58;;;;;;;15.15;100.00;97238.81;1674749;86;21072;-80
2022/06/24 01:49:41;;;;;;;92.62;53.10;;;;;;;15.18;100.00;97229.56;1674732;86;21029;-82
2022/06/24 01:52:08;;;;;;;231.45;121.42;;;;;;;15.21;100.00;97212.42;1674723;86;21033;-81
2022/06/24 01:54:35;;;;;;;229.10;125.07;;;;;;;15.23;100.00;97205.63;1674351;86;21009;-81
2022/06/24 01:57:03;;;;;;;162.37;85.92;;;;;;;15.24;100.00;97194.20;1674695;86;21120;-81
2022/06/24 01:59:30;;;;;;;164.72;88.70;;;;;;;15.24;100.00;97185.48;1674586;86;21065;-81
2022/06/24 02:01:57;;;;;;;354.63;189.95;;;;;;;15.28;100.00;97165.34;1674642;86;21120;-80
2022/06/24 02:04:23;;;;;;;271.37;140.97;;;;;;;15.30;100.00;97149.02;1674627;86;21009;-80
2022/06/24 02:06:50;;;;;;;218.97;118.67;;;;;;;15.33;100.00;97143.56;1674625;86;21077;-80
2022/06/24 02:09:17;;;;;;;184.40;118.53;;;;;;;15.36;100.00;97128.05;1674383;86;21029;-80
2022/06/24 02:14:30;;;;;;;95.85;56.10;;;;;;;15.41;100.00;97097.30;1656643;84;21497;-80
2022/06/24 02:16:57;;;;;;;47.83;27.77;;;;;;;15.41;100.00;97084.48;1708671;84;21538;-80
2022/06/24 02:19:24;;;;;;;52.78;32.30;;;;;;;15.45;100.00;97059.70;1677046;86;20990;-81
2022/06/24 02:21:50;;;;;;;41.18;24.90;;;;;;;15.51;100.00;96982.37;1674580;86;21086;-81
2022/06/24 02:24:17;;;;;;;62.62;37.10;;;;;;;15.55;100.00;96952.12;1655131;87;21100;-80
2022/06/24 02:26:45;;;;;;;60.25;37.80;;;;;;;15.59;100.00;96938.75;1655245;87;21065;-81
2022/06/24 02:29:12;;;;;;;37.30;23.52;;;;;;;15.63;100.00;96917.23;1655098;87;21016;-80
2022/06/24 02:31:39;;;;;;;27.50;16.27;;;;;;;15.69;100.00;96903.86;1655263;87;21508;-81
2022/06/24 02:34:06;;;;;;;20.55;12.58;;;;;;;15.73;100.00;96894.02;1655178;87;21047;-80
2022/06/24 02:36:33;;;;;;;21.37;13.38;;;;;;;15.81;100.00;96876.30;1655069;87;21069;-80
2022/06/24 02:39:00;;;;;;;21.10;12.93;;;;;;;15.86;100.00;96853.91;1649978;87;21054;-81
2022/06/24 02:41:28;;;;;;;21.37;13.22;;;;;;;15.94;100.00;96834.81;1648192;87;21598;-81
2022/06/24 02:43:55;;;;;;;22.98;14.43;;;;;;;15.98;100.00;96824.95;1648106;87;21033;-81
2022/06/24 02:46:22;;;;;;;24.02;15.32;;;;;;;16.00;100.00;96806.97;1648194;87;21030;-80
2022/06/24 02:48:49;;;;;;;22.98;15.72;;;;;;;16.02;100.00;96799.31;1648452;87;21052;-79
2022/06/24 02:51:16;;;;;;;34.23;21.87;;;;;;;16.07;100.00;96792.45;1648179;87;21022;-81
2022/06/24 02:53:43;;;;;;;43.00;28.02;;;;;;;16.08;100.00;96783.20;1648393;87;21021;-80
2022/06/24 02:56:13;;;;;;;36.53;23.92;;;;;;;16.12;100.00;96785.05;1648087;87;21543;-80
2022/06/24 02:58:41;;;;;;;30.08;19.73;;;;;;;16.14;100.00;96784.20;1648398;87;21539;-81
2022/06/24 03:01:07;;;;;;;26.73;16.93;;;;;;;16.16;100.00;96785.28;1648182;87;21097;-80
2022/06/24 03:03:35;;;;;;;27.25;17.07;;;;;;;16.20;100.00;96783.63;1648414;87;21504;-80
2022/06/24 03:06:03;;;;;;;27.27;16.87;;;;;;;16.26;100.00;96770.20;1648270;87;21061;-80
2022/06/24 03:08:29;;;;;;;25.62;16.80;;;;;;;16.32;100.00;96766.34;1648332;87;21041;-81
2022/06/24 03:10:56;;;;;;;22.37;14.53;;;;;;;16.29;100.00;96775.65;1651399;85;21089;-81
2022/06/24 03:13:23;;;;;;;22.30;14.25;;;;;;;16.26;100.00;96772.92;1685767;85;20985;-79
2022/06/24 03:15:50;;;;;;;21.80;13.93;;;;;;;16.28;100.00;96778.09;1662731;85;21487;-79
2022/06/24 03:18:18;;;;;;;21.57;13.13;;;;;;;16.35;100.00;96783.22;1652586;87;21037;-79
2022/06/24 03:20:46;;;;;;;20.68;12.95;;;;;;;16.40;100.00;96781.81;1622004;88;21061;-81
2022/06/24 03:23:16;;;;;;;18.42;11.83;;;;;;;16.46;100.00;96784.17;1652522;87;21373;-81
2022/06/24 03:25:43;;;;;;;17.07;10.70;;;;;;;16.50;100.00;96798.88;1622045;88;21096;-80
2022/06/24 03:28:11;;;;;;;16.85;10.15;;;;;;;16.59;100.00;96813.22;1652395;87;21024;-80
2022/06/24 03:30:37;;;;;;;16.12;10.35;;;;;;;16.67;100.00;96808.52;1621913;87;21157;-81
2022/06/24 03:33:05;;;;;;;14.98;10.30;;;;;;;16.69;100.00;96801.66;1652226;87;20985;-80
2022/06/24 03:35:31;;;;;;;19.60;11.20;;;;;;;16.74;100.00;96808.98;1622109;88;21495;-80
2022/06/24 03:37:58;;;;;;;18.05;11.88;;;;;;;16.79;100.00;96813.58;1652502;84;21076;-80
2022/06/24 03:40:25;;;;;;;17.15;11.80;;;;;;;16.74;100.00;96819.89;1621876;88;21037;-79
2022/06/24 03:42:53;;;;;;;16.07;10.78;;;;;;;16.62;100.00;96851.64;1652489;87;21076;-81
2022/06/24 03:45:20;;;;;;;16.62;11.08;;;;;;;16.59;100.00;96867.77;1621958;88;21068;-81
2022/06/24 03:47:48;;;;;;;15.43;10.30;;;;;;;16.58;100.00;96888.79;1652423;87;21056;-80
2022/06/24 03:50:15;;;;;;;17.73;11.03;;;;;;;16.60;100.00;96907.59;1622104;88;21074;-81
2022/06/24 03:52:42;;;;;;;25.37;11.83;;;;;;;16.57;100.00;96923.97;1652568;87;21025;-80
2022/06/24 03:55:09;;;;;;;27.93;15.72;;;;;;;16.59;100.00;96939.53;1622160;88;21022;-81
2022/06/24 03:57:37;;;;;;;19.90;12.15;;;;;;;16.63;100.00;96951.48;1652694;87;21021;-80
2022/06/24 04:00:07;;;;;;;19.15;10.85;;;;;;;16.70;100.00;96955.25;1622029;88;21061;-80
2022/06/24 04:02:36;;;;;;;16.37;10.65;;;;;;;16.75;100.00;96955.21;1648903;87;21070;-81
2022/06/24 04:05:04;;;;;;;17.90;11.40;;;;;;;16.86;100.00;96958.13;1622044;88;21005;-81
2022/06/24 04:07:31;;;;;;;17.75;11.53;;;;;;;16.96;100.00;96962.66;1652322;87;21013;-80
2022/06/24 04:09:58;;;;;;;29.15;17.60;;;;;;;17.08;100.00;96960.36;1622016;88;21041;-80
2022/06/24 04:12:26;;;;;;;27.32;16.85;;;;;;;17.26;100.00;96942.98;1676368;85;21049;-81
2022/06/24 04:17:40;;;;;;;23.40;14.35;;;;;;;17.39;100.00;96974.27;1626529;88;21081;-81
2022/06/24 04:20:09;;;;;;;21.23;13.15;;;;;;;17.46;100.00;97010.24;1655133;87;21503;-80
2022/06/24 04:22:36;;;;;;;28.70;17.00;;;;;;;17.58;100.00;97027.05;1626523;88;21093;-79
2022/06/24 04:25:03;;;;;;;45.40;28.55;;;;;;;17.76;100.00;97040.50;1656274;87;21052;-78
2022/06/24 04:27:30;;;;;;;31.68;17.17;;;;;;;17.87;100.00;97063.09;1629461;88;21064;-80
2022/06/24 04:30:05;;;;;;;24.12;12.82;;;;;;;17.93;100.00;97103.47;1655680;87;21518;-79
2022/06/24 04:32:32;;;;;;;21.70;12.47;;;;;;;18.03;100.00;97138.91;1626842;88;21085;-81
2022/06/24 04:34:59;;;;;;;16.37;11.05;;;;;;;18.21;100.00;97160.58;1655258;87;21020;-79
2022/06/24 04:37:26;;;;;;;16.35;9.05;;;;;;;18.35;100.00;97175.73;1626579;88;21602;-80
2022/06/24 04:39:53;;;;;;;13.28;8.70;;;;;;;18.50;100.00;97202.92;1659078;84;21059;-81
2022/06/24 04:42:19;;;;;;;14.68;9.18;;;;;;;18.67;100.00;97224.88;1638161;88;21073;-80
2022/06/24 04:44:47;;;;;;;15.23;9.40;;;;;;;18.81;100.00;97261.38;1654910;87;21104;-81
2022/06/24 04:47:13;;;;;;;14.43;9.03;;;;;;;18.90;100.00;97295.80;1638215;88;21117;-80
2022/06/24 04:49:40;;;;;;;12.18;8.15;;;;;;;18.95;100.00;97346.39;1654811;87;20992;-81
2022/06/24 04:52:07;;;;;;;12.53;8.90;;;;;;;18.98;100.00;97385.48;1659828;86;21532;-80
2022/06/24 04:54:34;;;;;;;15.20;9.98;;;;;;;19.05;100.00;97416.64;1638187;88;21508;-81
2022/06/24 04:57:00;;;;;;;17.98;10.32;;;;;;;19.14;100.00;97445.86;1654997;87;21068;-78
2022/06/24 04:59:27;;;;;;;15.98;9.63;;;;;;;19.31;100.00;97467.86;1654942;87;21127;-78
2022/06/24 05:01:54;;;;;;;15.03;9.13;;;;;;;19.51;100.00;97488.73;1660147;86;21036;-80
2022/06/24 05:04:21;;;;;;;16.80;9.73;;;;;;;19.69;100.00;97522.81;1640429;86;21026;-79
2022/06/24 05:06:49;;;;;;;15.08;9.23;;;;;;;19.82;100.00;97553.65;1642649;87;21018;-80
2022/06/24 05:09:17;;;;;;;17.32;11.00;;;;;;;19.84;100.00;97586.27;1647942;87;21021;-79
2022/06/24 05:11:46;;;;;;;20.85;14.20;;;;;;;19.87;100.00;97604.88;1653023;87;21045;-77
2022/06/24 05:14:13;;;;;;;21.10;14.10;;;;;;;19.95;100.00;97631.65;1653985;85;21037;-77
2022/06/24 05:16:41;;;;;;;136.28;122.07;;;;;;;19.95;100.00;97672.79;1676154;84;21444;-78
2022/06/24 05:19:10;;;;;;;33.20;22.22;;;;;;;19.88;100.00;97726.62;1692666;84;21002;-78
2022/06/24 05:21:37;;;;;;;23.80;17.35;;;;;;;19.86;100.00;97804.22;1694582;84;21115;-76
2022/06/24 05:24:04;;;;;;;22.90;16.17;;;;;;;19.79;100.00;97823.48;1676074;85;20990;-78
2022/06/24 05:26:31;;;;;;;22.80;14.68;;;;;;;19.77;100.00;97882.72;1670116;85;21077;-80
2022/06/24 05:28:59;;;;;;;116.45;68.92;;;;;;;19.80;100.00;97908.77;1658174;85;21066;-78
2022/06/24 05:31:26;;;;;;;70.20;57.93;;;;;;;19.91;100.00;97914.45;1661647;85;21014;-76
2022/06/24 05:33:53;;;;;;;25.85;14.15;;;;;;;20.03;100.00;97906.69;1660928;85;21025;-77
2022/06/24 05:36:20;;;;;;;19.65;12.58;;;;;;;20.17;100.00;97925.23;1650993;87;21025;-78
2022/06/24 05:38:47;;;;;;;54.50;29.67;;;;;;;20.30;100.00;97929.53;1652239;86;21582;-77
2022/06/24 05:41:14;;;;;;;28.47;17.82;;;;;;;20.47;100.00;97936.55;1659852;86;21014;-75
2022/06/24 05:43:41;;;;;;;24.67;15.15;;;;;;;20.56;100.00;97965.59;1673321;85;21522;-77
2022/06/24 05:46:08;;;;;;;88.90;75.92;;;;;;;20.40;100.00;98012.36;1673531;85;21017;-77
2022/06/24 05:48:35;;;;;;;102.65;86.65;;;;;;;20.38;100.00;98016.47;1675740;85;21586;-76
2022/06/24 05:51:13;;;;;;;51.00;42.80;;;;;;;20.54;100.00;98006.20;1673727;85;21048;-77
2022/06/24 05:56:25;;;;;;;23.15;18.85;;;;;;;20.82;100.00;98023.33;1658551;86;21029;-74
2022/06/24 05:58:55;;;;;;;14.60;10.48;;;;;;;20.85;100.00;98044.71;1671243;85;21507;-76
2022/06/24 06:01:22;;;;;;;16.52;10.20;;;;;;;20.82;100.00;98063.69;1657871;86;21526;-75
2022/06/24 06:03:48;;;;;;;15.08;9.45;;;;;;;20.78;100.00;98063.45;1671389;85;21593;-77
2022/06/24 06:06:15;;;;;;;17.00;9.65;;;;;;;20.80;100.00;98072.21;1659589;85;21577;-76
2022/06/24 06:08:42;;;;;;;56.95;47.93;;;;;;;20.85;100.00;98074.92;1659759;86;20986;-76
2022/06/24 06:11:17;;;;;;;25.72;19.23;;;;;;;20.80;100.00;98087.87;1674896;85;20994;-77
2022/06/24 06:13:45;;;;;;;22.30;13.22;;;;;;;20.75;100.00;98092.88;1671270;85;21499;-77
2022/06/24 06:16:13;;;;;;;16.55;10.90;;;;;;;20.69;100.00;98092.62;1673963;85;21045;-76
2022/06/24 06:18:40;;;;;;;16.62;10.40;;;;;;;20.60;100.00;98083.33;1675173;85;20993;-76
2022/06/24 06:21:09;;;;;;;17.92;10.48;;;;;;;20.60;100.00;98073.72;1659273;85;21073;-76
2022/06/24 06:23:37;;;;;;;17.82;10.28;;;;;;;20.57;100.00;98070.16;1658189;86;21088;-76
2022/06/24 06:26:05;;;;;;;15.70;10.28;;;;;;;20.51;100.00;98066.63;1657873;86;21057;-74
2022/06/24 06:28:34;;;;;;;19.32;10.95;;;;;;;20.44;100.00;98063.38;1657458;86;21649;-76
2022/06/24 06:31:01;;;;;;;23.65;14.25;;;;;;;20.38;100.00;98062.59;1658391;86;21072;-76
2022/06/24 06:33:30;;;;;;;19.98;12.85;;;;;;;20.38;100.00;98056.27;1658364;86;21096;-76
2022/06/24 06:36:11;;;;;;;22.93;13.80;;;;;;;20.25;100.00;98075.55;1641990;86;21591;-76
2022/06/24 06:38:39;;;;;;;72.30;45.10;;;;;;;20.05;100.00;98076.48;1659445;86;21072;-77
2022/06/24 06:41:05;;;;;;;24.63;15.70;;;;;;;19.89;100.00;98052.41;1660056;86;21029;-77
2022/06/24 06:43:32;;;;;;;24.80;15.28;;;;;;;;;;1659974;86;21088;-77
2022/06/24 06:45:59;;;;;;;21.50;13.85;;;;;;;19.66;100.00;97967.48;1659755;86;21070;-78
2022/06/24 06:48:26;;;;;;;17.30;11.40;;;;;;;19.59;100.00;97914.32;1660108;86;21533;-77
2022/06/24 06:50:57;;;;;;;16.48;10.58;;;;;;;19.47;100.00;97854.91;1659642;86;21148;-76
2022/06/24 06:53:25;;;;;;;23.25;18.17;;;;;;;19.35;100.00;97805.37;1663935;85;20969;-77
2022/06/24 06:55:53;;;;;;;27.70;19.67;;;;;;;19.26;100.00;97768.70;1688525;85;21494;-79
2022/06/24 06:58:21;;;;;;;25.08;16.00;;;;;;;19.18;100.00;97736.44;1681163;85;20985;-79
2022/06/24 07:00:49;;;;;;;23.45;15.43;;;;;;;19.11;100.00;97714.84;1670838;85;21040;-78
2022/06/24 07:03:16;;;;;;;302.48;269.65;;;;;;;19.08;100.00;97682.53;1659951;86;21029;-79
2022/06/24 07:05:43;;;;;;;28.65;22.32;;;;;;;19.04;100.00;97661.49;1671481;85;21621;-78
2022/06/24 07:08:12;;;;;;;19.55;13.68;;;;;;;19.00;100.00;97645.34;1666248;85;21229;-78
2022/06/24 07:10:40;;;;;;;15.00;10.08;;;;;;;18.99;100.00;97621.81;1659189;86;21009;-78
2022/06/24 07:13:07;;;;;;;13.70;9.80;;;;;;;19.05;100.00;97596.85;1671768;85;21013;-80
2022/06/24 07:15:34;;;;;;;19.55;11.12;;;;;;;19.15;100.00;97579.50;1663782;85;21040;-79
2022/06/24 07:18:01;;;;;;;23.05;14.40;;;;;;;19.42;100.00;97549.39;1659296;85;21072;-79
2022/06/24 07:20:29;;;;;;;22.73;13.85;;;;;;;19.74;100.00;97526.86;1660089;86;21056;-78
2022/06/24 07:22:56;;;;;;;22.32;12.70;;;;;;;20.05;100.00;97519.09;1678876;85;21021;-78
2022/06/24 07:25:22;;;;;;;20.05;11.75;;;;;;;20.35;100.00;97523.90;1673405;85;21116;-78
2022/06/24 07:27:50;;;;;;;17.52;10.93;;;;;;;20.65;100.00;97537.75;1659666;86;21096;-78
2022/06/24 07:30:17;;;;;;;17.77;11.00;;;;;;;20.89;100.00;97562.11;1659666;86;21665;-77
2022/06/24 07:32:47;;;;;;;18.82;11.50;;;;;;;21.04;100.00;97602.52;1660098;85;21535;-79
2022/06/24 07:35:14;;;;;;;18.52;11.45;;;;;;;21.18;100.00;97634.73;1659905;86;21129;-78
2022/06/24 07:37:41;;;;;;;19.85;11.25;;;;;;;21.27;100.00;97673.35;1660170;86;21030;-77
2022/06/24 07:40:09;;;;;;;19.42;11.83;;;;;;;21.29;100.00;97716.46;1659661;84;21088;-78
2022/06/24 07:42:36;;;;;;;23.90;13.45;;;;;;;21.26;100.00;97743.16;1660191;86;21048;-78
2022/06/24 07:45:04;;;;;;;22.58;13.70;;;;;;;21.21;100.00;97786.09;1660067;85;21068;-79
2022/06/24 07:47:31;;;;;;;21.42;13.88;;;;;;;21.18;100.00;97812.78;1660359;86;21041;-78
2022/06/24 07:49:59;;;;;;;20.97;12.53;;;;;;;21.21;100.00;97819.61;1659878;86;21539;-79
2022/06/24 07:52:26;;;;;;;19.35;11.73;;;;;;;21.34;100.00;97822.20;1621638;86;21088;-80
2022/06/24 07:56:56;;;;;;;20.32;13.13;;;;;;;21.44;100.00;97827.55;1660153;85;21108;-80
2022/06/24 07:57:21;;;;;;;21.90;13.75;;;;;;;21.47;100.00;97848.17;1655766;86;21502;-78
2022/06/24 07:59:49;;;;;;;19.85;12.20;;;;;;;21.42;100.00;97873.76;1660401;86;21097;-81
2022/06/24 08:02:15;;;;;;;18.35;11.65;;;;;;;21.37;100.00;97891.69;1660829;86;21144;-77
2022/06/24 08:04:42;;;;;;;19.55;11.50;;;;;;;21.28;100.00;97909.38;1660242;86;21101;-79
2022/06/24 08:07:09;;;;;;;18.20;11.03;;;;;;;21.15;100.00;97917.78;1660345;86;21180;-79
2022/06/24 08:09:37;;;;;;;20.10;10.08;;;;;;;21.08;100.00;97914.56;1659069;86;21064;-80
2022/06/24 08:12:06;;;;;;;19.60;10.63;;;;;;;21.10;100.00;97912.91;1677787;85;21020;-77
2022/06/24 08:14:34;;;;;;;18.37;11.45;;;;;;;21.11;100.00;97909.87;1687456;85;21017;-77
2022/06/24 08:17:02;;;;;;;18.48;10.72;;;;;;;21.24;100.00;97906.97;1660151;86;21526;-78
2022/06/24 08:19:28;;;;;;;16.05;10.53;;;;;;;21.54;100.00;97886.55;1681328;85;21049;-76
2022/06/24 08:21:55;;;;;;;16.65;9.63;;;;;;;21.98;100.00;97875.74;1660259;86;21527;-76
2022/06/24 08:24:22;;;;;;;17.85;10.50;;;;;;;22.15;100.00;97937.68;1681357;85;21049;-80
2022/06/24 08:26:50;;;;;;;15.95;9.38;;;;;;;22.06;100.00;98006.36;1681534;85;21523;-80
2022/06/24 08:29:17;;;;;;;13.80;9.40;;;;;;;21.92;100.00;98029.65;1698103;84;21204;-78
2022/06/24 08:31:44;;;;;;;17.80;9.85;;;;;;;21.87;100.00;98038.49;1703421;84;21072;-77
2022/06/24 08:34:11;;;;;;;17.20;10.35;;;;;;;21.82;100.00;98060.02;1703943;84;21044;-76
2022/06/24 08:36:38;;;;;;;16.75;10.40;;;;;;;21.75;100.00;98089.81;1700246;84;21035;-76
2022/06/24 08:39:06;;;;;;;17.98;10.53;;;;;;;21.67;100.00;98095.37;1700792;84;21061;-76
2022/06/24 08:41:33;;;;;;;13.28;8.98;;;;;;;21.57;100.00;98092.76;1692989;84;21056;-75
2022/06/24 08:44:00;;;;;;;16.97;9.43;;;;;;;21.59;100.00;98062.47;1691145;84;21045;-75
2022/06/24 08:46:27;;;;;;;13.20;8.88;;;;;;;21.69;100.00;98053.84;1691664;84;21534;-76
2022/06/24 08:48:58;;;;;;;15.80;9.50;;;;;;;21.82;100.00;98048.21;1705902;84;21499;-74
2022/06/24 08:51:22;;;;;;;14.85;9.35;;;;;;;21.96;100.00;98045.81;1709080;83;21029;-75
2022/06/24 08:53:49;;;;;;;17.50;9.63;;;;;;;22.07;100.00;98053.95;1705814;84;21037;-73
2022/06/24 08:56:16;;;;;;;12.43;8.43;;;;;;;22.18;100.00;98062.33;1705685;84;21017;-74
2022/06/24 08:58:43;;;;;;;13.10;8.53;;;;;;;22.30;100.00;98082.02;1705917;84;21044;-75
2022/06/24 09:01:15;;;;;;;13.25;8.55;;;;;;;22.68;100.00;98050.91;1703138;84;21503;-75
2022/06/24 09:03:45;;;;;;;15.15;9.50;;;;;;;23.08;100.00;98054.16;1706480;84;20985;-75
2022/06/24 09:06:13;;;;;;;15.90;8.75;;;;;;;23.40;100.00;98073.19;1704777;84;21608;-73
2022/06/24 09:08:40;;;;;;;14.87;9.23;;;;;;;23.51;100.00;98121.52;1704080;84;21072;-75
2022/06/24 09:11:08;;;;;;;17.45;9.48;;;;;;;23.54;100.00;98154.58;1706219;84;21091;-76
2022/06/24 09:13:55;;;;;;;16.30;9.68;;;;;;;23.64;100.00;98140.05;1714426;84;21033;-75
2022/06/24 09:16:25;;;;;;;15.40;8.85;;;;;;;23.99;100.00;98156.27;1704166;84;21020;-74
2022/06/24 09:18:54;;;;;;;14.78;9.23;;;;;;;24.59;100.00;98145.69;1698553;84;21040;-72
2022/06/24 09:21:24;;;;;;;17.20;9.35;;;;;;;25.27;100.00;98167.41;1680517;85;21013;-75
2022/06/24 09:23:53;;;;;;;12.13;7.60;;;;;;;25.89;100.00;98224.80;1631581;88;21070;-75
2022/06/24 09:26:38;;;;;;;13.70;7.47;;;;;;;26.49;100.00;98264.25;1616172;89;21073;-73
2022/06/24 09:29:13;;;;;;;8.90;6.03;;;;;;;27.05;100.00;98355.55;1639412;87;21147;-73
2022/06/24 09:31:40;;;;;;;11.08;5.90;;;;;;;27.35;100.00;98447.41;1584717;90;21089;-75
2022/06/24 09:34:14;;;;;;;12.45;6.15;;;;;;;27.36;100.00;98817.33;1584469;90;21124;-77
2022/06/24 09:36:44;;;;;;;10.68;6.35;;;;;;;27.14;100.00;98956.20;1583827;90;21121;-76
2022/06/24 09:39:12;;;;;;;11.93;6.45;;;;;;;26.84;100.00;98986.17;1585027;90;21599;-77
2022/06/24 09:41:54;;;;;;;11.43;6.53;;;;;;;26.58;100.00;99003.77;1573400;90;21057;-76
2022/06/24 09:44:21;;;;;;;12.95;7.05;;;;;;;26.39;100.00;99018.22;1595272;90;21555;-75
2022/06/24 09:46:50;;;;;;;28.77;22.17;;;;;;;26.09;100.00;99028.62;1595664;90;21554;-75
2022/06/24 09:49:17;;;;;;;20.32;9.98;;;;;;;25.99;100.00;99009.38;1591757;90;21153;-76
2022/06/24 09:51:45;;;;;;;14.63;7.72;;;;;;;26.12;100.00;99003.91;1549057;93;21100;-75
2022/06/24 09:54:13;;;;;;;11.60;7.10;;;;;;;26.17;100.00;99011.88;1549383;93;21602;-73
2022/06/24 09:56:40;;;;;;;16.02;8.58;;;;;;;26.15;100.00;99019.10;1548888;93;21601;-76
2022/06/24 10:01:53;;;;;;;14.18;8.23;;;;;;;26.02;100.00;99014.32;1547927;92;21100;-74
2022/06/24 10:04:20;;;;;;;14.28;8.80;;;;;;;25.88;100.00;98992.86;1548001;93;21139;-73
2022/06/24 10:06:50;;;;;;;14.50;8.85;;;;;;;25.74;100.00;98991.95;1547730;93;21288;-72
2022/06/24 10:09:27;;;;;;;13.43;7.92;;;;;;;25.62;100.00;98981.33;1547872;93;21156;-72
2022/06/24 10:11:54;;;;;;;12.13;8.00;;;;;;;25.55;100.00;98983.06;1546297;92;21094;-73
2022/06/24 10:14:21;;;;;;;16.60;8.70;;;;;;;25.52;100.00;98977.30;1598251;89;21629;-73
2022/06/24 10:16:49;;;;;;;14.60;7.83;;;;;;;25.53;100.00;98970.63;1599118;90;21045;-73
2022/06/24 10:19:15;;;;;;;14.90;7.80;;;;;;;25.52;100.00;98982.27;1599395;90;21222;-72
2022/06/24 10:21:42;;;;;;;12.33;6.42;;;;;;;25.38;100.00;98991.83;1629590;88;21089;-72
2022/06/24 10:24:14;;;;;;;11.88;7.33;;;;;;;25.33;100.00;98973.91;1631781;88;21179;-72
2022/06/24 10:26:44;;;;;;;12.40;7.28;;;;;;;25.39;100.00;98960.83;1631871;88;21065;-72
2022/06/24 10:29:17;;;;;;;11.08;6.97;;;;;;;25.42;100.00;98968.55;1611076;88;21053;-74
2022/06/24 10:34:28;;;;;;;10.05;6.00;;;;;;;25.14;100.00;98975.22;1647288;85;20396;-75
2022/06/24 10:37:12;;;;;;;8.93;6.03;;;;;;;24.94;100.00;98972.66;1691032;84;21048;-74
2022/06/24 10:39:48;;;;;;;9.88;4.75;;;;;;;24.72;100.00;98962.07;1660369;86;21502;-75
2022/06/24 10:42:20;;;;;;;9.20;4.20;;;;;;;24.30;100.00;98993.34;1653014;87;21151;-73
2022/06/24 10:45:05;;;;;;;7.80;4.75;;;;;;;23.88;100.00;99001.04;1648545;87;21049;-72
2022/06/24 10:47:39;;;;;;;13.93;4.58;;;;;;;23.64;100.00;99000.05;1647479;87;21088;-75
2022/06/24 10:50:14;;;;;;;;;;;;;;;23.45;100.00;98991.57;1657041;86;21024;-73
2022/06/24 10:55:28;;;;;;;7.20;3.50;;;;;;;23.24;100.00;99004.03;1585559;89;21129;-76
2022/06/24 10:58:10;;;;;;;6.50;3.30;;;;;;;23.19;100.00;99011.50;1582808;90;21094;-74
2022/06/24 11:00:48;;;;;;;6.83;3.87;;;;;;;23.13;100.00;99017.58;1586038;90;21101;-73
2022/06/24 11:03:22;;;;;;;8.28;4.35;;;;;;;23.06;100.00;99013.73;1586167;90;21097;-73
2022/06/24 11:05:51;;;;;;;6.80;4.83;;;;;;;22.98;100.00;99001.03;1586362;90;21086;-74
2022/06/24 11:08:21;;;;;;;7.05;5.47;;;;;;;22.86;100.00;98965.48;1586258;90;21074;-74
2022/06/24 11:10:49;;;;;;;11.38;6.80;;;;;;;22.69;100.00;98907.94;1584024;91;21073;-73
2022/06/24 11:13:17;;;;;;;14.18;7.58;;;;;;;22.50;100.00;98780.98;1583771;91;21101;-75
2022/06/24 11:15:49;;;;;;;12.68;7.65;;;;;;;22.28;100.00;98629.91;1564944;91;21052;-74
2022/06/24 11:18:28;;;;;;;11.45;7.03;;;;;;;22.13;100.00;98503.60;1570593;91;21040;-74
2022/06/24 11:21:01;;;;;;;14.80;7.10;;;;;;;21.97;100.00;98438.20;1532181;94;21621;-73
2022/06/24 11:23:30;;;;;;;11.30;7.30;;;;;;;21.87;100.00;98393.39;1532210;94;21130;-73
2022/06/24 11:26:07;;;;;;;10.98;6.75;;;;;;;21.70;100.00;98370.41;1532157;94;21565;-74
2022/06/24 11:28:39;;;;;;;12.25;7.83;;;;;;;21.52;100.00;98352.09;1532354;94;21095;-75
2022/06/24 11:31:28;;;;;;;14.50;8.13;;;;;;;21.44;100.00;98321.02;1532284;94;21102;-75
2022/06/24 11:34:08;;;;;;;16.93;8.33;;;;;;;21.38;100.00;98302.93;1499315;96;21053;-74